Terminal Aerodrome Forecast
Issued by NWS

Home | Current Version | Previous Version | Text Only | Print | Product List | Glossary Off
Versions: 1 2 3 4 5 6 7 8 9 10 11 12 13 14 15 16

483
FTUS43 KABR 231120
TAFPIR
TAF
KPIR 231120Z 2312/2412 15007KT P6SM FEW250
     FM231600 26013KT P6SM FEW250
     FM231800 32018G25KT P6SM FEW250
     FM240300 33010KT P6SM FEW250=

USA.gov is the U.S. government's official web portal to all federal, state and local government web resources and services.